createdAt,value
2022-12-03T00:01:17.443Z,3.80
2022-12-03T00:03:44.426Z,3.82
2022-12-03T00:06:11.390Z,3.85
2022-12-03T00:08:38.167Z,3.89
2022-12-03T00:11:05.136Z,3.94
2022-12-03T00:13:32.011Z,3.74
2022-12-03T00:15:58.973Z,3.79
2022-12-03T00:18:25.848Z,3.76
2022-12-03T00:20:52.733Z,3.80
2022-12-03T00:23:19.625Z,3.83
2022-12-03T00:25:46.557Z,3.92
2022-12-03T00:28:13.386Z,3.91
2022-12-03T00:30:40.301Z,3.98
2022-12-03T00:33:07.202Z,3.84
2022-12-03T00:35:34.122Z,3.80
2022-12-03T00:38:00.943Z,3.73
2022-12-03T00:40:27.914Z,3.68
2022-12-03T00:42:54.797Z,3.68
2022-12-03T00:45:21.691Z,3.65
2022-12-03T00:47:48.469Z,3.66
2022-12-03T00:50:15.510Z,3.62
2022-12-03T00:52:42.421Z,3.58
2022-12-03T00:55:09.709Z,3.61
2022-12-03T00:57:36.599Z,3.57
2022-12-03T01:00:05.656Z,3.54
2022-12-03T01:02:32.955Z,3.51
2022-12-03T01:05:00.095Z,3.49
2022-12-03T01:07:27.004Z,3.49
2022-12-03T01:09:54.106Z,3.60
2022-12-03T01:12:20.941Z,3.52
2022-12-03T01:14:47.992Z,3.53
2022-12-03T01:17:14.881Z,3.56
2022-12-03T01:19:47.849Z,3.60
2022-12-03T01:22:15.216Z,3.55
2022-12-03T01:24:42.102Z,3.66
2022-12-03T01:27:09.230Z,3.60
2022-12-03T01:29:36.075Z,3.63
2022-12-03T01:32:19.441Z,3.72
2022-12-03T01:34:48.303Z,3.72
2022-12-03T01:37:16.331Z,3.61
2022-12-03T01:39:43.644Z,3.60
2022-12-03T01:42:18.487Z,3.61
2022-12-03T01:44:46.384Z,3.64
2022-12-03T01:47:17.601Z,3.70
2022-12-03T01:49:46.738Z,3.66
2022-12-03T01:52:16.407Z,3.68
2022-12-03T01:54:47.737Z,3.60
2022-12-03T01:57:22.208Z,3.63
2022-12-03T01:59:50.271Z,3.66
2022-12-03T02:02:28.664Z,3.76
2022-12-03T02:04:56.330Z,3.75
2022-12-03T02:07:33.420Z,3.73
2022-12-03T02:10:02.704Z,3.77
2022-12-03T02:12:38.561Z,3.82
2022-12-03T02:15:07.318Z,3.75
2022-12-03T02:17:34.451Z,3.79
2022-12-03T02:20:03.068Z,3.78
2022-12-03T02:22:46.456Z,3.80
2022-12-03T02:25:28.523Z,3.81
2022-12-03T02:27:56.318Z,3.83
2022-12-03T02:30:25.732Z,3.78
2022-12-03T02:32:54.276Z,3.80
2022-12-03T02:35:24.680Z,3.73
2022-12-03T02:37:59.452Z,3.63
2022-12-03T02:40:31.215Z,3.58
2022-12-03T02:43:01.455Z,3.55
2022-12-03T02:45:34.161Z,3.51
2022-12-03T02:48:05.748Z,3.50
2022-12-03T02:50:34.785Z,3.56
2022-12-03T02:53:04.860Z,3.56
2022-12-03T02:55:37.160Z,3.58
2022-12-03T02:58:05.337Z,3.61
2022-12-03T03:00:33.279Z,3.56
2022-12-03T03:03:01.683Z,3.56
2022-12-03T03:05:28.650Z,3.69
2022-12-03T03:07:58.519Z,3.69
2022-12-03T03:10:26.735Z,3.54
2022-12-03T03:12:55.613Z,3.60
2022-12-03T03:15:25.015Z,3.59
2022-12-03T03:17:52.397Z,3.54
2022-12-03T03:20:20.118Z,3.54
2022-12-03T03:22:46.984Z,3.62
2022-12-03T03:25:18.807Z,3.73
2022-12-03T03:27:46.165Z,3.84
2022-12-03T03:30:14.069Z,3.72
2022-12-03T03:32:42.730Z,3.64
2022-12-03T03:35:11.503Z,3.60
2022-12-03T03:37:39.226Z,3.63
2022-12-03T03:40:07.187Z,3.58
2022-12-03T03:42:34.641Z,3.55
2022-12-03T03:45:01.784Z,3.60
2022-12-03T03:47:28.721Z,3.68
2022-12-03T03:49:55.796Z,3.66
2022-12-03T03:52:23.316Z,3.71
2022-12-03T03:54:50.847Z,3.66
2022-12-03T03:57:17.921Z,3.62
2022-12-03T03:59:44.830Z,3.59
2022-12-03T04:02:24.309Z,3.57
2022-12-03T04:04:57.831Z,3.61
2022-12-03T04:07:24.813Z,3.61
2022-12-03T04:09:51.717Z,3.65
2022-12-03T04:12:37.052Z,3.59
2022-12-03T04:15:04.339Z,3.66
2022-12-03T04:17:31.138Z,3.66
2022-12-03T06:16:51.339Z,3.45
2022-12-03T06:19:18.345Z,3.44
2022-12-03T06:21:45.153Z,3.38
2022-12-03T06:24:12.772Z,3.49
2022-12-03T06:26:39.581Z,3.42
2022-12-03T06:29:06.408Z,3.38
2022-12-03T06:31:34.307Z,3.33
2022-12-03T06:34:01.189Z,3.46
2022-12-03T06:36:28.435Z,3.39
2022-12-03T06:39:04.303Z,3.39
2022-12-03T06:41:36.777Z,3.32
2022-12-03T06:44:11.951Z,3.32
2022-12-03T06:46:50.669Z,3.30
2022-12-03T06:49:20.755Z,3.32
2022-12-03T06:51:50.567Z,3.36
2022-12-03T06:54:30.846Z,3.39
2022-12-03T06:57:00.697Z,3.46
2022-12-03T06:59:27.670Z,3.47
2022-12-03T07:01:54.534Z,3.58
2022-12-03T07:04:21.412Z,3.60
2022-12-03T07:06:48.203Z,3.55
2022-12-03T07:09:17.132Z,3.54
2022-12-03T07:11:43.951Z,3.62
2022-12-03T07:14:13.786Z,3.59
2022-12-03T07:16:43.511Z,3.50
2022-12-03T07:19:11.043Z,3.48
2022-12-03T07:21:38.517Z,3.49
2022-12-03T07:24:06.172Z,3.51
2022-12-03T07:26:33.226Z,3.53
2022-12-03T07:29:00.428Z,3.57
2022-12-03T07:31:27.352Z,3.71
2022-12-03T07:33:55.010Z,3.76
2022-12-03T07:36:21.913Z,3.88
2022-12-03T07:38:49.194Z,3.84
2022-12-03T07:41:15.972Z,3.86
2022-12-03T07:43:42.880Z,3.77
2022-12-03T07:46:09.753Z,3.77
2022-12-03T07:48:36.691Z,3.77
2022-12-03T07:51:03.700Z,3.67
2022-12-03T07:53:30.655Z,3.75
2022-12-03T07:55:57.427Z,3.71
2022-12-03T07:58:24.357Z,3.75
2022-12-03T08:00:51.221Z,3.82
2022-12-03T08:03:18.091Z,3.89
2022-12-03T08:05:45.968Z,4.02
2022-12-03T08:08:13.014Z,4.09
2022-12-03T08:10:39.962Z,4.14
2022-12-03T08:13:18.292Z,4.02
2022-12-03T08:15:45.418Z,3.89
2022-12-03T08:18:22.338Z,3.87
2022-12-03T08:20:51.454Z,3.96
2022-12-03T08:23:24.042Z,4.00
2022-12-03T08:25:52.686Z,4.09
2022-12-03T08:28:24.343Z,3.95
2022-12-03T08:31:12.744Z,4.05
2022-12-03T08:33:40.743Z,4.11
2022-12-03T08:36:23.490Z,4.19
2022-12-03T08:39:02.536Z,4.21
2022-12-03T08:41:48.873Z,4.23
2022-12-03T08:44:26.344Z,4.24
2022-12-03T08:47:14.235Z,4.40
2022-12-03T08:49:41.388Z,4.43
2022-12-03T08:52:20.725Z,4.41
2022-12-03T08:54:54.408Z,4.49
2022-12-03T08:57:33.681Z,4.60
2022-12-03T09:00:14.060Z,4.59
2022-12-03T09:02:46.396Z,4.74
2022-12-03T09:05:19.097Z,4.61
2022-12-03T09:07:46.081Z,4.71
2022-12-03T09:10:13.009Z,4.59
2022-12-03T09:12:39.911Z,4.64
2022-12-03T09:15:07.277Z,4.78
2022-12-03T09:17:34.231Z,4.89
2022-12-03T09:20:01.125Z,4.94
2022-12-03T09:22:27.995Z,4.89
2022-12-03T09:24:55.009Z,4.81
2022-12-03T09:27:23.040Z,4.70
2022-12-03T09:29:50.683Z,4.74
2022-12-03T09:32:18.836Z,4.69
2022-12-03T09:34:46.197Z,4.60
2022-12-03T09:37:13.082Z,4.48
2022-12-03T09:39:39.951Z,4.39
2022-12-03T09:42:06.961Z,4.42
2022-12-03T09:44:35.318Z,4.52
2022-12-03T09:47:03.354Z,4.43
2022-12-03T09:49:33.033Z,4.38
2022-12-03T09:52:03.038Z,4.40
2022-12-03T09:54:30.920Z,4.50
2022-12-03T09:57:02.346Z,4.48
2022-12-03T09:59:34.445Z,4.63
2022-12-03T10:02:02.310Z,4.74
2022-12-03T10:04:30.059Z,4.81
2022-12-03T10:06:59.097Z,4.75
2022-12-03T10:09:28.860Z,4.84
2022-12-03T10:11:59.079Z,4.82
2022-12-03T10:14:26.261Z,4.65
2022-12-03T10:16:53.285Z,4.48
2022-12-03T10:19:24.681Z,4.51
2022-12-03T10:21:51.662Z,4.66
2022-12-03T10:24:21.500Z,4.68
2022-12-03T10:26:50.586Z,4.41
2022-12-03T10:29:25.845Z,4.52
2022-12-03T10:32:09.574Z,4.80
2022-12-03T10:34:38.835Z,4.84
2022-12-03T10:37:21.159Z,4.90
2022-12-03T10:40:12.328Z,4.98
2022-12-03T10:42:41.168Z,4.95
2022-12-03T10:45:15.424Z,4.93
2022-12-03T10:48:03.275Z,4.67
2022-12-03T10:50:30.781Z,4.60
2022-12-03T10:52:57.632Z,4.70
2022-12-03T10:55:25.064Z,4.69
2022-12-03T10:57:52.308Z,4.65
2022-12-03T11:00:20.761Z,4.67
2022-12-03T11:02:56.154Z,4.71
2022-12-03T11:05:29.467Z,4.72
2022-12-03T11:07:57.216Z,4.75
2022-12-03T11:10:24.681Z,4.84
2022-12-03T11:13:28.440Z,4.98
2022-12-03T11:15:56.117Z,4.98
2022-12-03T11:18:36.267Z,4.99
2022-12-03T11:21:05.526Z,4.91
2022-12-03T11:23:44.347Z,5.02
2022-12-03T11:26:27.171Z,5.12
2022-12-03T11:28:56.200Z,5.09
2022-12-03T11:31:48.223Z,5.17
2022-12-03T11:34:21.008Z,5.17
2022-12-03T11:37:12.405Z,5.15
2022-12-03T11:39:45.663Z,5.14
2022-12-03T11:42:28.729Z,5.15
2022-12-03T11:45:04.844Z,5.12
2022-12-03T11:47:41.959Z,5.06
2022-12-03T11:50:22.199Z,4.97
2022-12-03T11:52:52.821Z,4.77
2022-12-03T11:55:31.693Z,4.62
2022-12-03T11:58:00.931Z,4.63
2022-12-03T12:00:30.226Z,4.61
2022-12-03T12:02:58.805Z,4.67
2022-12-03T12:05:34.602Z,4.71
2022-12-03T12:08:02.684Z,4.60
2022-12-03T12:10:50.513Z,4.41
2022-12-03T12:13:26.233Z,4.48
2022-12-03T12:15:53.243Z,4.67
2022-12-03T12:18:38.547Z,4.53
2022-12-03T12:22:02.841Z,4.56
2022-12-03T12:24:36.536Z,4.35
2022-12-03T12:27:07.521Z,4.29
2022-12-03T12:29:36.648Z,4.46
2022-12-03T12:32:09.465Z,4.64
2022-12-03T12:34:41.556Z,4.70
2022-12-03T12:37:33.277Z,4.53
2022-12-03T12:40:02.033Z,4.52
2022-12-03T12:42:35.466Z,4.70
2022-12-03T12:45:09.524Z,4.64
2022-12-03T12:47:36.910Z,4.68
2022-12-03T12:50:10.927Z,4.69
2022-12-03T12:52:54.669Z,4.79
2022-12-03T12:55:23.441Z,4.71
2022-12-03T12:57:51.100Z,4.55
2022-12-03T13:00:23.749Z,4.62
2022-12-03T13:02:50.675Z,4.68
2022-12-03T13:05:18.054Z,4.59
2022-12-03T13:07:45.799Z,4.46
2022-12-03T13:10:34.107Z,4.41
2022-12-03T13:13:43.721Z,4.58
2022-12-03T13:16:17.247Z,4.60
2022-12-03T13:18:55.646Z,4.50
2022-12-03T13:21:24.776Z,4.32
2022-12-03T13:23:57.122Z,4.21
2022-12-03T13:26:38.765Z,4.21
2022-12-03T13:29:15.498Z,4.28
2022-12-03T13:32:05.880Z,4.53
2022-12-03T13:34:33.924Z,4.57
2022-12-03T13:37:01.981Z,4.58
2022-12-03T13:39:35.558Z,4.45
2022-12-03T13:42:26.831Z,4.29
2022-12-03T13:44:53.792Z,4.50
2022-12-03T13:47:22.303Z,4.58
2022-12-03T13:49:55.616Z,4.51
2022-12-03T13:52:25.554Z,4.61
2022-12-03T13:54:55.865Z,4.61
2022-12-03T13:57:22.882Z,4.61
2022-12-03T13:59:49.704Z,4.62
2022-12-03T14:02:16.745Z,4.67
2022-12-03T14:04:43.701Z,4.67
2022-12-03T14:07:10.554Z,4.71
2022-12-03T14:09:37.553Z,4.67
2022-12-03T14:12:22.866Z,4.71
2022-12-03T14:14:49.856Z,4.58
2022-12-03T14:17:16.813Z,4.53
2022-12-03T14:19:44.397Z,4.61
2022-12-03T14:22:11.818Z,4.62
2022-12-03T14:24:40.151Z,4.58
2022-12-03T14:27:07.049Z,4.54
2022-12-03T14:29:34.145Z,4.57
2022-12-03T14:32:01.197Z,4.57
2022-12-03T14:34:28.334Z,4.65
2022-12-03T14:36:55.241Z,4.61
2022-12-03T14:39:22.172Z,4.53
2022-12-03T14:42:07.645Z,4.65
2022-12-03T14:44:34.483Z,4.54
2022-12-03T14:47:01.435Z,4.52
2022-12-03T14:49:28.446Z,4.37
2022-12-03T14:51:55.380Z,4.39
2022-12-03T14:54:22.880Z,4.45
2022-12-03T14:56:49.835Z,4.39
2022-12-03T14:59:16.738Z,4.31
2022-12-03T15:01:43.670Z,4.31
2022-12-03T15:04:11.438Z,4.35
2022-12-03T15:06:38.279Z,4.41
2022-12-03T15:09:05.378Z,4.41
2022-12-03T15:11:32.665Z,4.52
2022-12-03T15:13:59.564Z,4.52
2022-12-03T15:16:26.617Z,4.52
2022-12-03T15:18:53.868Z,4.46
2022-12-03T15:21:20.706Z,4.26
2022-12-03T15:23:47.589Z,4.20
2022-12-03T15:26:14.489Z,4.20
2022-12-03T15:28:46.724Z,4.28
2022-12-03T15:31:15.095Z,4.35
2022-12-03T15:33:41.895Z,4.38
2022-12-03T15:36:09.330Z,4.33
2022-12-03T15:38:36.288Z,4.24
2022-12-03T15:41:21.099Z,4.21
2022-12-03T15:43:52.583Z,4.19
2022-12-03T15:46:22.564Z,4.23
2022-12-03T15:48:49.870Z,4.26
2022-12-03T15:51:16.799Z,4.32
2022-12-03T15:53:43.770Z,4.36
2022-12-03T15:56:12.199Z,4.35
2022-12-03T15:58:40.324Z,4.39
2022-12-03T16:01:08.719Z,4.39
2022-12-03T16:03:35.960Z,4.40
2022-12-03T16:06:02.941Z,4.43
2022-12-03T16:08:29.891Z,4.44
2022-12-03T16:10:56.739Z,4.42
2022-12-03T16:13:23.623Z,4.45
2022-12-03T16:15:50.545Z,4.46
2022-12-03T16:18:17.530Z,4.47
2022-12-03T16:20:44.615Z,4.44
2022-12-03T16:23:11.592Z,4.37
2022-12-03T16:25:38.522Z,4.34
2022-12-03T16:28:06.425Z,4.33
2022-12-03T16:30:33.340Z,4.28
2022-12-03T16:33:00.277Z,4.45
2022-12-03T16:35:27.257Z,4.55
2022-12-03T16:37:54.098Z,4.58
2022-12-03T16:40:20.898Z,4.53
2022-12-03T16:42:47.796Z,4.49
2022-12-03T16:45:23.601Z,4.43
2022-12-03T16:47:50.641Z,4.45
2022-12-03T16:50:24.393Z,4.48
2022-12-03T16:52:56.114Z,4.37
2022-12-03T16:55:22.952Z,4.47
2022-12-03T16:57:49.903Z,4.53
2022-12-03T17:00:17.341Z,4.52
2022-12-03T17:02:44.348Z,4.49
2022-12-03T17:05:11.292Z,4.44
2022-12-03T17:07:38.239Z,4.52
2022-12-03T17:10:05.655Z,4.44
2022-12-03T17:13:00.727Z,4.29
2022-12-03T17:15:19.769Z,4.38
2022-12-03T17:17:46.703Z,4.40
2022-12-03T17:20:14.866Z,4.47
2022-12-03T17:22:41.942Z,4.38
2022-12-03T17:25:09.791Z,4.38
2022-12-03T17:27:42.049Z,4.46
2022-12-03T17:30:13.212Z,4.32
2022-12-03T17:32:40.203Z,4.41
2022-12-03T17:35:07.632Z,4.40
2022-12-03T17:37:34.591Z,4.26
2022-12-03T17:40:01.506Z,4.28
2022-12-03T17:42:28.355Z,4.28
2022-12-03T17:44:55.313Z,4.26
2022-12-03T17:47:24.843Z,4.22
2022-12-03T17:49:53.051Z,4.38
2022-12-03T17:52:20.210Z,4.39
2022-12-03T17:55:10.077Z,4.40
2022-12-03T17:57:33.916Z,4.36
2022-12-03T18:00:00.801Z,4.28
2022-12-03T18:02:27.662Z,4.28
2022-12-03T18:04:54.595Z,4.33
2022-12-03T18:07:21.506Z,4.26
2022-12-03T18:09:48.353Z,4.35
2022-12-03T18:12:15.282Z,4.43
2022-12-03T18:14:42.167Z,4.37
2022-12-03T18:17:09.017Z,4.39
2022-12-03T18:19:35.820Z,4.37
2022-12-03T18:22:02.703Z,4.36
2022-12-03T18:24:29.538Z,4.41
2022-12-03T18:26:56.499Z,4.37
2022-12-03T18:29:23.291Z,4.40
2022-12-03T18:31:50.217Z,4.50
2022-12-03T18:34:17.112Z,4.53
2022-12-03T18:36:46.058Z,4.54
2022-12-03T18:39:24.311Z,4.59
2022-12-03T18:41:52.918Z,4.61
2022-12-03T18:44:20.028Z,4.59
2022-12-03T18:46:54.924Z,4.48
2022-12-03T18:49:22.321Z,4.44
2022-12-03T18:51:52.142Z,4.40
2022-12-03T18:54:22.885Z,4.44
2022-12-03T18:56:49.781Z,4.42
2022-12-03T18:59:16.614Z,4.33
2022-12-03T19:01:43.442Z,4.33
2022-12-03T19:04:10.861Z,4.37
2022-12-03T19:06:37.648Z,4.38
2022-12-03T19:09:04.995Z,4.37
2022-12-03T19:11:34.148Z,4.49
2022-12-03T19:14:02.975Z,4.43
2022-12-03T19:16:30.023Z,4.44
2022-12-03T19:18:57.414Z,4.45
2022-12-03T19:21:25.215Z,4.45
2022-12-03T19:24:22.577Z,4.41
2022-12-03T19:26:41.042Z,4.35
2022-12-03T19:29:08.820Z,4.43
2022-12-03T19:31:35.943Z,4.43
2022-12-03T19:34:03.060Z,4.44
2022-12-03T19:36:31.711Z,4.52
2022-12-03T19:38:59.623Z,4.53
2022-12-03T19:41:28.201Z,4.53
2022-12-03T19:43:56.610Z,4.46
2022-12-03T19:46:25.686Z,4.44
2022-12-03T19:48:55.048Z,4.49
2022-12-03T19:51:37.227Z,4.48
2022-12-03T19:54:06.790Z,4.44
2022-12-03T19:56:34.688Z,4.48
2022-12-03T19:59:01.731Z,4.51
2022-12-03T20:01:31.709Z,4.44
2022-12-03T20:04:01.326Z,4.44
2022-12-03T20:06:31.323Z,4.46
2022-12-03T20:09:00.134Z,4.45
2022-12-03T20:11:30.120Z,4.47
2022-12-03T20:14:03.398Z,4.40
2022-12-03T20:16:30.585Z,4.37
2022-12-03T20:19:00.487Z,4.32
2022-12-03T20:21:30.318Z,4.36
2022-12-03T20:23:57.499Z,4.37
2022-12-03T20:26:24.690Z,4.33
2022-12-03T20:28:53.868Z,4.42
2022-12-03T20:31:23.380Z,4.36
2022-12-03T20:33:52.407Z,4.41
2022-12-03T20:36:22.935Z,4.40
2022-12-03T20:38:57.435Z,4.35
2022-12-03T20:41:24.956Z,4.36
2022-12-03T20:43:53.736Z,4.40
2022-12-03T20:46:26.096Z,4.48
2022-12-03T20:48:56.362Z,4.58
2022-12-03T20:51:27.661Z,4.58
2022-12-03T20:53:54.666Z,4.50
2022-12-03T20:56:24.802Z,4.62
2022-12-03T20:58:53.345Z,4.60
2022-12-03T21:01:25.362Z,4.51
2022-12-03T21:03:53.674Z,4.46
2022-12-03T21:06:22.391Z,4.46
2022-12-03T21:08:49.804Z,4.53
2022-12-03T21:11:19.485Z,4.52
2022-12-03T21:13:47.651Z,4.42
2022-12-03T21:16:18.100Z,4.33
2022-12-03T21:18:45.515Z,4.41
2022-12-03T21:21:14.133Z,4.50
2022-12-03T21:23:41.800Z,4.47
2022-12-03T21:26:16.648Z,4.51
2022-12-03T21:28:45.981Z,4.49
2022-12-03T21:31:15.289Z,4.58
2022-12-03T21:33:42.604Z,4.70
2022-12-03T21:36:10.740Z,4.64
2022-12-03T21:38:38.152Z,4.66
2022-12-03T21:41:05.703Z,4.49
2022-12-03T21:43:34.045Z,4.55
2022-12-03T21:46:05.346Z,4.63
2022-12-03T21:48:52.382Z,4.50
2022-12-03T21:51:19.881Z,4.51
2022-12-03T21:53:47.302Z,4.54
2022-12-03T21:56:19.358Z,4.54
2022-12-03T21:58:47.021Z,4.53
2022-12-03T22:01:18.299Z,4.57
2022-12-03T22:03:45.878Z,4.63
2022-12-03T22:06:13.981Z,4.58
2022-12-03T22:08:41.779Z,4.57
2022-12-03T22:11:15.361Z,4.60
2022-12-03T22:13:42.416Z,4.53
2022-12-03T22:16:11.799Z,4.66
2022-12-03T22:18:39.152Z,4.57
2022-12-03T22:21:08.324Z,4.51
2022-12-03T22:23:35.749Z,4.43
2022-12-03T22:26:06.332Z,4.49
2022-12-03T22:28:34.247Z,4.46
2022-12-03T22:31:06.468Z,4.44
2022-12-03T22:33:33.649Z,4.44
2022-12-03T22:36:14.648Z,4.49
2022-12-03T22:38:45.368Z,4.54
2022-12-03T22:41:14.143Z,4.59
2022-12-03T22:43:41.050Z,4.61
2022-12-03T22:46:17.833Z,4.58
2022-12-03T22:48:46.634Z,4.58
2022-12-03T22:51:16.932Z,4.49
2022-12-03T22:53:43.965Z,4.52
2022-12-03T22:56:11.139Z,4.53
2022-12-03T22:58:38.917Z,4.52
2022-12-03T23:01:06.636Z,4.62
2022-12-03T23:03:33.800Z,4.52
2022-12-03T23:06:01.035Z,4.45
2022-12-03T23:08:27.998Z,4.42
2022-12-03T23:10:54.808Z,4.52
2022-12-03T23:13:21.719Z,4.52
2022-12-03T23:15:50.575Z,4.60
2022-12-03T23:18:20.262Z,4.60
2022-12-03T23:20:50.015Z,4.50
2022-12-03T23:23:17.207Z,4.64
2022-12-03T23:25:44.455Z,4.54
2022-12-03T23:28:12.677Z,4.52
2022-12-03T23:30:40.144Z,4.48
2022-12-03T23:33:07.064Z,4.55
2022-12-03T23:35:34.400Z,4.46
2022-12-03T23:38:01.318Z,4.46
2022-12-03T23:40:28.122Z,4.47
2022-12-03T23:42:55.249Z,4.45
2022-12-03T23:45:22.266Z,4.49
2022-12-03T23:47:52.356Z,4.47
2022-12-03T23:50:21.980Z,4.42
2022-12-03T23:52:48.840Z,4.48
2022-12-03T23:55:15.853Z,4.53
2022-12-03T23:57:42.778Z,4.51
